createdAt,value
2023-05-07T00:02:26.196Z,0.0
2023-05-07T00:07:32.545Z,0.0
2023-05-07T00:12:58.918Z,0.0
2023-05-07T00:17:35.405Z,0.0
2023-05-07T00:22:41.877Z,0.0
2023-05-07T00:27:58.289Z,0.0
2023-05-07T00:33:08.399Z,0.0
2023-05-07T00:38:04.741Z,0.0
2023-05-07T00:43:10.978Z,0.0
2023-05-07T00:48:27.364Z,0.0
2023-05-07T00:53:33.843Z,0.0
2023-05-07T00:58:30.101Z,0.0
2023-05-07T01:03:46.529Z,0.0
2023-05-07T01:09:27.080Z,0.0
2023-05-07T01:14:19.330Z,0.0
2023-05-07T01:19:09.260Z,0.0
2023-05-07T01:24:05.618Z,0.0
2023-05-07T01:29:25.730Z,0.0
2023-05-07T01:34:31.992Z,0.0
2023-05-07T01:39:38.359Z,0.0
2023-05-07T01:44:48.788Z,0.0
2023-05-07T01:49:51.201Z,0.0
2023-05-07T01:54:57.607Z,0.0
2023-05-07T02:00:04.092Z,0.0
2023-05-07T02:05:10.369Z,0.0
2023-05-07T02:10:16.747Z,0.0
2023-05-07T02:15:13.211Z,0.0
2023-05-07T02:20:28.533Z,0.0
2023-05-07T02:25:35.919Z,0.0
2023-05-07T02:31:16.520Z,0.0
2023-05-07T02:36:23.822Z,0.0
2023-05-07T02:41:33.764Z,0.0
2023-05-07T02:46:40.317Z,0.0
2023-05-07T02:51:46.725Z,0.0
2023-05-07T02:56:53.098Z,0.0
2023-05-07T03:01:59.569Z,0.0
2023-05-07T03:07:05.876Z,0.0
2023-05-07T03:12:46.551Z,0.0
2023-05-07T03:17:54.041Z,0.0
2023-05-07T03:23:01.873Z,0.0
2023-05-07T03:28:08.265Z,0.0
2023-05-07T03:33:38.852Z,0.0
2023-05-07T03:38:21.067Z,0.0
2023-05-07T03:43:40.467Z,0.0
2023-05-07T03:49:02.014Z,0.0
2023-05-07T03:54:04.413Z,0.0
2023-05-07T03:58:46.854Z,5.0
2023-05-07T04:03:53.341Z,5.0
2023-05-07T04:13:55.931Z,10.0
2023-05-07T04:19:13.172Z,15.0
2023-05-07T04:24:19.544Z,20.0
2023-05-07T04:29:26.036Z,30.0
2023-05-07T04:34:36.324Z,40.0
2023-05-07T04:39:38.696Z,45.0
2023-05-07T04:44:45.167Z,55.0
2023-05-07T04:50:29.510Z,70.0
2023-05-07T04:54:57.808Z,70.0
2023-05-07T05:00:04.439Z,75.0
2023-05-07T05:05:10.554Z,80.0
2023-05-07T05:10:23.134Z,90.0
2023-05-07T05:15:22.391Z,90.0
2023-05-07T05:20:53.724Z,85.0
2023-05-07T05:25:36.109Z,85.0
2023-05-07T05:30:46.578Z,80.0
2023-05-07T05:35:48.880Z,85.0
2023-05-07T05:40:59.259Z,95.0
2023-05-07T05:46:02.106Z,105.0
2023-05-07T05:51:08.161Z,115.0
2023-05-07T05:56:14.563Z,125.0
2023-05-07T06:01:21.011Z,135.0
2023-05-07T06:06:27.291Z,145.0
2023-05-07T06:11:33.672Z,155.0
2023-05-07T06:17:04.317Z,170.0
2023-05-07T06:21:50.415Z,185.0
2023-05-07T06:26:52.851Z,205.0
2023-05-07T06:31:59.265Z,215.0
2023-05-07T06:37:05.748Z,220.0
2023-05-07T06:42:12.024Z,230.0
2023-05-07T06:47:18.384Z,240.0
2023-05-07T06:52:24.776Z,245.0
2023-05-07T06:57:31.112Z,245.0
2023-05-07T07:02:39.101Z,250.0
2023-05-07T07:07:45.434Z,255.0
2023-05-07T07:12:51.849Z,255.0
2023-05-07T07:17:58.271Z,255.0
2023-05-07T07:23:25.723Z,265.0
2023-05-07T07:33:19.103Z,285.0
2023-05-07T07:38:30.706Z,295.0
2023-05-07T07:43:36.987Z,325.0
2023-05-07T07:48:39.365Z,345.0
2023-05-07T07:53:49.826Z,355.0
2023-05-07T07:58:53.659Z,390.0
2023-05-07T08:04:00.167Z,435.0
2023-05-07T08:09:20.437Z,425.0
2023-05-07T08:14:12.798Z,415.0
2023-05-07T08:19:26.771Z,400.0
2023-05-07T08:24:29.226Z,385.0
2023-05-07T08:29:25.473Z,460.0
2023-05-07T08:34:31.853Z,545.0
2023-05-07T08:39:48.925Z,620.0
2023-05-07T08:50:05.618Z,595.0
2023-05-07T08:54:59.012Z,800.0
2023-05-07T09:00:05.381Z,790.0
2023-05-07T09:06:05.890Z,595.0
2023-05-07T09:10:28.201Z,545.0
2023-05-07T09:15:34.535Z,680.0
2023-05-07T09:25:51.500Z,945.0
2023-05-07T09:30:53.736Z,925.0
2023-05-07T09:36:00.156Z,1030.0
2023-05-07T09:41:10.588Z,830.0
2023-05-07T09:46:13.054Z,1235.0
2023-05-07T09:51:19.264Z,1340.0
2023-05-07T09:56:25.631Z,1385.0
2023-05-07T10:01:36.053Z,1435.0
2023-05-07T10:06:42.363Z,1335.0
2023-05-07T10:11:44.875Z,1375.0
2023-05-07T10:16:51.106Z,1430.0
2023-05-07T10:21:57.491Z,1280.0
2023-05-07T10:27:04.038Z,1355.0
2023-05-07T10:32:13.789Z,1275.0
2023-05-07T10:37:20.196Z,1330.0
2023-05-07T10:42:26.644Z,1375.0
2023-05-07T10:47:32.949Z,1340.0
2023-05-07T10:52:40.897Z,1545.0
2023-05-07T10:57:47.389Z,1395.0
2023-05-07T11:02:53.866Z,1625.0
2023-05-07T11:08:00.223Z,1695.0
2023-05-07T11:13:08.367Z,1705.0
2023-05-07T11:18:14.570Z,1090.0
2023-05-07T11:23:20.942Z,1215.0
2023-05-07T11:28:27.973Z,1060.0
2023-05-07T11:33:33.253Z,1145.0
2023-05-07T11:38:40.666Z,975.0
2023-05-07T11:43:47.096Z,905.0
2023-05-07T11:48:53.557Z,1315.0
2023-05-07T11:53:59.962Z,1655.0
2023-05-07T11:59:06.382Z,1460.0
2023-05-07T12:04:12.798Z,1630.0
2023-05-07T12:09:19.094Z,1750.0
2023-05-07T12:14:25.486Z,1700.0
2023-05-07T12:19:31.943Z,1885.0
2023-05-07T12:24:38.325Z,1920.0
2023-05-07T12:29:44.754Z,1905.0
2023-05-07T12:34:51.081Z,1480.0
2023-05-07T12:39:58.012Z,1765.0
2023-05-07T12:45:04.465Z,1315.0
2023-05-07T12:50:10.887Z,1020.0
2023-05-07T12:55:17.305Z,1105.0
2023-05-07T13:00:23.693Z,1045.0
2023-05-07T13:05:30.021Z,1290.0
2023-05-07T13:10:36.417Z,1120.0
2023-05-07T13:15:42.789Z,1510.0
2023-05-07T13:20:50.693Z,1135.0
2023-05-07T13:25:57.150Z,1235.0
2023-05-07T13:31:05.050Z,1045.0
2023-05-07T13:36:10.416Z,750.0
2023-05-07T13:41:19.353Z,730.0
2023-05-07T13:46:25.837Z,800.0
2023-05-07T13:51:35.698Z,695.0
2023-05-07T13:56:42.071Z,575.0
2023-05-07T14:02:22.599Z,655.0
2023-05-07T14:06:55.001Z,685.0
2023-05-07T14:12:01.444Z,630.0
2023-05-07T14:17:07.877Z,475.0
2023-05-07T14:22:17.807Z,455.0
2023-05-07T14:27:24.163Z,355.0
2023-05-07T14:32:32.154Z,345.0
2023-05-07T14:37:38.515Z,320.0
2023-05-07T14:42:46.026Z,330.0
2023-05-07T14:47:52.515Z,285.0
2023-05-07T14:53:00.437Z,280.0
2023-05-07T14:58:06.728Z,320.0
2023-05-07T15:03:14.794Z,250.0
2023-05-07T15:08:21.242Z,245.0
2023-05-07T15:13:27.778Z,280.0
2023-05-07T15:18:34.014Z,280.0
2023-05-07T15:23:42.010Z,280.0
2023-05-07T15:28:48.474Z,270.0
2023-05-07T15:33:54.864Z,265.0
2023-05-07T15:39:05.283Z,225.0
2023-05-07T15:44:07.655Z,200.0
2023-05-07T15:49:06.082Z,185.0
2023-05-07T15:54:22.466Z,175.0
2023-05-07T15:59:30.414Z,155.0
2023-05-07T16:04:35.757Z,150.0
2023-05-07T16:09:46.725Z,145.0
2023-05-07T16:14:53.246Z,130.0
2023-05-07T16:19:59.678Z,115.0
2023-05-07T16:25:10.325Z,110.0
2023-05-07T16:30:55.507Z,115.0
2023-05-07T16:35:52.847Z,120.0
2023-05-07T16:41:09.389Z,120.0
2023-05-07T16:46:15.838Z,115.0
2023-05-07T16:51:22.114Z,110.0
2023-05-07T16:56:28.533Z,105.0
2023-05-07T17:01:59.443Z,105.0
2023-05-07T17:06:41.366Z,90.0
2023-05-07T17:11:47.786Z,85.0
2023-05-07T17:16:54.152Z,80.0
2023-05-07T17:22:00.516Z,75.0
2023-05-07T17:27:07.044Z,60.0
2023-05-07T17:32:13.411Z,50.0
2023-05-07T17:37:21.073Z,45.0
2023-05-07T17:42:26.300Z,40.0
2023-05-07T17:47:52.856Z,40.0
2023-05-07T17:52:59.199Z,30.0
2023-05-07T17:57:35.555Z,25.0
2023-05-07T18:02:52.569Z,20.0
2023-05-07T18:07:59.883Z,20.0
2023-05-07T18:13:09.984Z,20.0
2023-05-07T18:18:17.341Z,20.0
2023-05-07T18:23:23.813Z,20.0
2023-05-07T18:28:30.246Z,15.0
2023-05-07T18:33:40.427Z,10.0
2023-05-07T18:38:46.811Z,5.0
2023-05-07T18:43:53.274Z,5.0
2023-05-07T18:48:59.563Z,5.0
2023-05-07T18:54:09.583Z,5.0
2023-05-07T18:59:15.993Z,0.0
2023-05-07T19:04:22.404Z,0.0
2023-05-07T19:09:32.284Z,0.0
2023-05-07T19:14:38.705Z,0.0
2023-05-07T19:19:46.614Z,0.0
2023-05-07T19:24:54.151Z,0.0
2023-05-07T19:30:02.751Z,0.0
2023-05-07T19:35:09.119Z,0.0
2023-05-07T19:40:17.052Z,0.0
2023-05-07T19:45:23.450Z,0.0
2023-05-07T19:50:29.800Z,0.0
2023-05-07T19:55:36.290Z,0.0
2023-05-07T20:00:46.264Z,0.0
2023-05-07T20:05:52.687Z,0.0
2023-05-07T20:10:59.078Z,0.0
2023-05-07T20:16:29.565Z,0.0
2023-05-07T20:21:11.842Z,0.0
2023-05-07T20:26:18.219Z,0.0
2023-05-07T20:31:48.791Z,0.0
2023-05-07T20:36:21.055Z,0.0
2023-05-07T20:41:41.051Z,0.0
2023-05-07T20:46:47.999Z,0.0
2023-05-07T20:51:54.401Z,0.0
2023-05-07T20:57:00.772Z,0.0
2023-05-07T21:02:07.284Z,0.0
2023-05-07T21:07:13.654Z,0.0
2023-05-07T21:12:21.590Z,0.0
2023-05-07T21:17:27.996Z,0.0
2023-05-07T21:22:34.341Z,0.0
2023-05-07T21:27:40.702Z,0.0
2023-05-07T21:32:47.236Z,0.0
2023-05-07T21:37:53.604Z,0.0
2023-05-07T21:43:00.046Z,0.0
2023-05-07T21:48:06.396Z,0.0
2023-05-07T21:53:14.341Z,0.0
2023-05-07T21:58:10.693Z,0.0
2023-05-07T22:03:30.790Z,0.0
2023-05-07T22:08:37.146Z,0.0
2023-05-07T22:13:43.486Z,0.0
2023-05-07T22:18:49.874Z,0.0
2023-05-07T22:23:57.894Z,0.0
2023-05-07T22:34:10.178Z,0.0
2023-05-07T22:39:17.788Z,0.0
2023-05-07T22:44:44.184Z,0.0
2023-05-07T22:49:30.506Z,0.0
2023-05-07T22:54:36.904Z,0.0
2023-05-07T23:00:03.347Z,0.0
2023-05-07T23:04:49.676Z,0.0
2023-05-07T23:09:56.119Z,0.0
2023-05-07T23:15:02.516Z,0.0
2023-05-07T23:20:10.662Z,0.0
2023-05-07T23:25:16.835Z,0.0
2023-05-07T23:30:58.937Z,0.0
2023-05-07T23:35:31.150Z,0.0
2023-05-07T23:40:39.171Z,0.0
2023-05-07T23:45:45.561Z,0.0
2023-05-07T23:50:51.982Z,0.0
2023-05-07T23:55:58.421Z,0.0
